TimeMST,TemperatureF,Dew PointF,Humidity,Sea Level PressureIn,VisibilityMPH,Wind Direction,Wind SpeedMPH,Gust SpeedMPH,PrecipitationIn,Events,Conditions,WindDirDegrees,DateUTC
12:52 AM,12.9,3.9,67,30.19,10.0,West,3.5,-,N/A,,Clear,260,2012-11-25 07:52:00
1:52 AM,5.0,-2.9,70,30.22,10.0,SSE,5.8,-,N/A,,Clear,160,2012-11-25 08:52:00
2:52 AM,9.0,1.0,70,30.19,10.0,Calm,Calm,-,N/A,,Clear,0,2012-11-25 09:52:00
3:52 AM,5.0,-2.0,73,30.19,10.0,South,4.6,-,N/A,,Clear,190,2012-11-25 10:52:00
4:52 AM,7.0,1.0,77,30.20,10.0,Calm,Calm,-,N/A,,Clear,0,2012-11-25 11:52:00
5:52 AM,10.0,3.0,73,30.23,10.0,Calm,Calm,-,N/A,,Clear,0,2012-11-25 12:52:00
6:52 AM,7.0,1.0,77,30.25,10.0,NNW,3.5,-,N/A,,Clear,340,2012-11-25 13:52:00
7:52 AM,17.1,6.1,62,30.26,10.0,Calm,Calm,-,N/A,,Clear,0,2012-11-25 14:52:00
8:52 AM,26.1,10.9,53,30.24,10.0,Calm,Calm,-,N/A,,Clear,0,2012-11-25 15:52:00
9:52 AM,32.0,10.9,42,30.21,10.0,Calm,Calm,-,N/A,,Clear,0,2012-11-25 16:52:00
10:52 AM,39.9,10.9,31,30.15,10.0,ESE,4.6,-,N/A,,Clear,120,2012-11-25 17:52:00
11:52 AM,45.0,12.0,26,30.09,10.0,Variable,3.5,-,N/A,,Clear,0,2012-11-25 18:52:00
12:52 PM,48.9,12.0,23,30.02,10.0,Calm,Calm,-,N/A,,Clear,0,2012-11-25 19:52:00
1:52 PM,52.0,10.9,19,30.01,10.0,Calm,Calm,-,N/A,,Clear,0,2012-11-25 20:52:00
2:52 PM,53.1,9.0,17,29.96,10.0,Calm,Calm,-,N/A,,Clear,0,2012-11-25 21:52:00
3:52 PM,54.0,9.0,17,29.96,10.0,WNW,4.6,-,N/A,,Clear,300,2012-11-25 22:52:00
4:52 PM,44.1,10.0,25,30.01,10.0,NW,8.1,-,N/A,,Clear,320,2012-11-25 23:52:00
5:52 PM,30.9,7.0,37,30.08,10.0,West,8.1,-,N/A,,Clear,260,2012-11-26 00:52:00
6:52 PM,30.9,9.0,40,30.11,10.0,West,10.4,-,N/A,,Clear,260,2012-11-26 01:52:00
7:52 PM,25.0,8.1,49,30.11,10.0,ESE,4.6,-,N/A,,Clear,120,2012-11-26 02:52:00
8:52 PM,19.9,5.0,52,30.12,10.0,Calm,Calm,-,N/A,,Clear,0,2012-11-26 03:52:00
9:52 PM,17.1,3.9,56,30.11,10.0,South,5.8,-,N/A,,Clear,190,2012-11-26 04:52:00
10:52 PM,16.0,3.9,59,30.09,10.0,Calm,Calm,-,N/A,,Clear,0,2012-11-26 05:52:00
11:52 PM,19.9,7.0,57,30.04,10.0,Calm,Calm,-,N/A,,Clear,0,2012-11-26 06:52:00